Time;durP1;ratioP1;P1;durP2;ratioP2;P2;SDS_P1;SDS_P2;PMS_P1;PMS_P2;Temp;Humidity;BMP_temperature;BMP_pressure;BME280_temperature;BME280_humidity;BME280_pressure;Samples;Min_cycle;Max_cycle;Signal;HPM_P1;HPM_P2
2021/06/08 00:01:37;;;;;;;23.48;21.08;;;16.20;69.60;;;;;;5035458;28;20042;-84
2021/06/08 00:04:03;;;;;;;23.48;21.17;;;16.20;69.70;;;;;;5033445;28;20259;-84
2021/06/08 00:06:30;;;;;;;23.45;21.13;;;16.20;69.90;;;;;;5016203;28;20103;-84
2021/06/08 00:08:56;;;;;;;24.00;21.70;;;16.20;70.00;;;;;;4998984;28;20074;-84
2021/06/08 00:11:21;;;;;;;23.33;21.13;;;16.20;70.90;;;;;;4999295;28;20070;-84
2021/06/08 00:13:48;;;;;;;23.65;21.40;;;16.20;70.30;;;;;;5015394;28;20037;-88
2021/06/08 00:16:14;;;;;;;24.90;22.50;;;16.20;70.50;;;;;;5001640;28;20053;-85
2021/06/08 00:18:40;;;;;;;23.77;21.50;;;16.10;70.50;;;;;;5019314;28;20042;-85
2021/06/08 00:21:06;;;;;;;24.35;21.98;;;16.10;70.70;;;;;;5002066;28;20076;-85
2021/06/08 00:23:31;;;;;;;24.25;21.88;;;16.10;70.80;;;;;;5021990;28;20106;-85
2021/06/08 00:26:01;;;;;;;23.38;21.17;;;16.10;70.90;;;;;;5023084;28;20049;-85
2021/06/08 00:28:28;;;;;;;25.10;22.60;;;16.00;71.00;;;;;;5038544;28;20033;-85
2021/06/08 00:30:54;;;;;;;24.35;21.92;;;16.00;71.20;;;;;;5002399;28;20524;-85
2021/06/08 00:33:20;;;;;;;25.02;22.73;;;16.00;71.30;;;;;;5013839;28;20093;-83
2021/06/08 00:35:45;;;;;;;25.50;23.00;;;15.90;71.30;;;;;;5013073;28;20462;-85
2021/06/08 00:38:11;;;;;;;24.02;21.73;;;15.90;71.50;;;;;;5043029;28;20055;-86
2021/06/08 00:40:41;;;;;;;24.38;21.92;;;15.90;71.60;;;;;;5012839;28;20471;-85
2021/06/08 00:43:09;;;;;;;25.50;23.05;;;15.90;71.70;;;;;;5026910;28;20041;-84
2021/06/08 00:45:36;;;;;;;25.20;22.60;;;15.90;71.80;;;;;;5015887;28;20124;-83
2021/06/08 00:48:07;;;;;;;25.40;22.92;;;15.90;71.90;;;;;;5012824;28;20048;-84
2021/06/08 00:50:53;;;;;;;26.05;23.48;;;15.80;71.90;;;;;;5009506;28;20045;-88
2021/06/08 00:53:20;;;;;;;25.50;23.00;;;15.90;72.00;;;;;;5002376;28;20160;-84
2021/06/08 00:55:45;;;;;;;27.13;24.35;;;15.80;72.10;;;;;;4985808;28;20442;-86
2021/06/08 00:58:11;;;;;;;26.52;23.85;;;15.80;72.20;;;;;;5001227;28;20080;-84
2021/06/08 01:00:39;;;;;;;26.58;24.00;;;15.70;72.30;;;;;;4986332;28;20219;-84
2021/06/08 01:03:05;;;;;;;26.23;23.52;;;15.70;72.40;;;;;;5001173;28;20065;-85
2021/06/08 01:05:31;;;;;;;25.92;23.33;;;15.70;72.50;;;;;;5018161;28;20079;-85
2021/06/08 01:08:01;;;;;;;27.42;24.85;;;15.70;72.60;;;;;;5004183;28;20112;-87
2021/06/08 01:10:27;;;;;;;27.40;24.67;;;15.60;72.70;;;;;;5037613;28;20524;-85
2021/06/08 01:12:53;;;;;;;27.10;24.38;;;15.60;72.70;;;;;;5037596;28;20041;-88
2021/06/08 01:15:21;;;;;;;27.95;25.35;;;15.60;72.80;;;;;;5021174;28;20045;-85
2021/06/08 01:17:46;;;;;;;27.90;25.30;;;15.60;72.80;;;;;;5021746;28;20098;-84
2021/06/08 01:20:13;;;;;;;26.35;23.65;;;15.60;72.90;;;;;;5004538;28;20041;-85
2021/06/08 01:22:43;;;;;;;27.50;24.52;;;15.60;73.00;;;;;;5021946;28;20045;-85
2021/06/08 01:25:09;;;;;;;25.77;23.20;;;15.60;73.00;;;;;;5020916;28;20551;-84
2021/06/08 01:27:35;;;;;;;28.55;25.73;;;15.60;73.00;;;;;;5004744;28;20048;-84
2021/06/08 01:30:23;;;;;;;29.35;26.45;;;15.50;73.10;;;;;;4999522;28;20433;-84
2021/06/08 01:32:49;;;;;;;30.83;27.70;;;15.50;73.10;;;;;;5004280;28;20139;-84
2021/06/08 01:35:21;;;;;;;29.30;26.40;;;15.50;73.20;;;;;;5020580;28;20052;-84
2021/06/08 01:37:47;;;;;;;28.90;25.92;;;15.50;74.00;;;;;;5021481;28;20114;-84
2021/06/08 01:40:17;;;;;;;29.10;26.05;;;15.50;73.30;;;;;;5020183;28;20072;-84
2021/06/08 01:42:43;;;;;;;29.25;26.42;;;15.50;74.20;;;;;;4988005;28;20055;-84
2021/06/08 01:45:10;;;;;;;27.77;24.98;;;15.50;73.40;;;;;;5020112;28;20441;-85
2021/06/08 01:47:35;;;;;;;27.95;25.25;;;15.40;73.40;;;;;;5004229;28;20481;-84
2021/06/08 01:50:01;;;;;;;26.90;24.25;;;15.40;73.50;;;;;;5020879;28;20049;-86
2021/06/08 01:52:45;;;;;;;28.27;25.45;;;15.40;73.50;;;;;;5020846;28;20051;-85
2021/06/08 01:55:24;;;;;;;27.85;25.15;;;15.40;73.50;;;;;;5035966;28;20159;-85
2021/06/08 01:58:14;;;;;;;28.23;25.52;;;15.40;73.60;;;;;;5037898;28;20037;-85
2021/06/08 02:00:50;;;;;;;27.85;25.15;;;15.40;73.70;;;;;;5003378;28;20458;-86
2021/06/08 02:03:32;;;;;;;26.80;24.20;;;15.30;73.70;;;;;;5005287;28;20057;-85
2021/06/08 02:06:31;;;;;;;26.42;23.83;;;15.30;73.70;;;;;;5018716;28;20041;-86
2021/06/08 02:09:03;;;;;;;27.48;24.75;;;15.30;73.80;;;;;;5021289;28;20044;-85
2021/06/08 02:11:44;;;;;;;26.35;23.75;;;15.30;73.80;;;;;;5001768;28;20075;-85
2021/06/08 02:14:39;;;;;;;26.43;23.73;;;15.20;73.80;;;;;;5016633;28;20433;-84
2021/06/08 02:17:18;;;;;;;26.77;24.17;;;15.20;73.80;;;;;;5033550;28;20072;-83
2021/06/08 02:19:45;;;;;;;28.08;25.33;;;15.20;73.80;;;;;;5033994;28;20422;-86
2021/06/08 02:22:12;;;;;;;26.20;23.60;;;15.20;73.90;;;;;;5016898;28;20072;-86
2021/06/08 02:24:38;;;;;;;25.67;23.17;;;15.10;73.90;;;;;;5013853;28;20494;-85
2021/06/08 02:27:14;;;;;;;26.98;24.38;;;15.10;74.00;;;;;;5030129;28;20124;-84
2021/06/08 02:29:42;;;;;;;26.70;24.05;;;15.10;74.10;;;;;;5014697;28;20159;-84
2021/06/08 02:32:10;;;;;;;26.35;23.75;;;15.10;74.20;;;;;;4996987;28;20071;-86
2021/06/08 02:34:41;;;;;;;27.48;24.65;;;15.10;74.30;;;;;;5013928;28;20109;-83
2021/06/08 02:37:17;;;;;;;28.23;25.38;;;15.10;74.30;;;;;;5014264;28;20406;-84
2021/06/08 02:39:45;;;;;;;29.35;26.40;;;15.00;74.30;;;;;;4999658;28;20065;-83
2021/06/08 02:42:12;;;;;;;28.92;25.98;;;15.00;74.30;;;;;;4993102;28;20045;-84
2021/06/08 02:44:39;;;;;;;29.50;26.50;;;15.00;74.40;;;;;;4993930;28;20050;-84
2021/06/08 02:47:12;;;;;;;28.23;25.33;;;15.00;74.50;;;;;;5001797;28;20381;-85
2021/06/08 02:49:41;;;;;;;29.20;26.05;;;15.00;74.60;;;;;;5013710;28;20156;-85
2021/06/08 02:52:07;;;;;;;28.85;25.95;;;15.00;74.70;;;;;;5013881;28;20132;-87
2021/06/08 02:54:33;;;;;;;27.50;24.80;;;15.00;74.80;;;;;;5013912;28;20080;-85
2021/06/08 02:56:59;;;;;;;27.50;24.60;;;15.00;74.80;;;;;;5014004;28;20436;-84
2021/06/08 02:59:26;;;;;;;26.88;23.98;;;15.00;74.80;;;;;;5012802;28;20053;-83
2021/06/08 03:01:56;;;;;;;28.13;25.30;;;15.00;74.90;;;;;;5013196;28;20056;-85
2021/06/08 03:04:23;;;;;;;25.33;22.77;;;15.00;75.00;;;;;;5012696;28;20096;-83
2021/06/08 03:06:56;;;;;;;26.45;23.85;;;15.00;75.00;;;;;;5002221;28;20038;-85
2021/06/08 03:09:40;;;;;;;24.85;22.35;;;14.90;75.00;;;;;;4993915;28;20042;-84
2021/06/08 03:12:12;;;;;;;25.08;22.50;;;14.90;75.10;;;;;;4995416;28;20045;-83
2021/06/08 03:14:40;;;;;;;26.60;23.83;;;14.90;75.10;;;;;;4994198;28;20112;-82
2021/06/08 03:17:06;;;;;;;25.77;23.08;;;14.90;75.00;;;;;;4993913;28;20042;-84
2021/06/08 03:19:37;;;;;;;25.80;23.17;;;14.90;75.10;;;;;;4979126;28;20140;-85
2021/06/08 03:22:09;;;;;;;26.55;23.85;;;14.90;75.20;;;;;;4994126;28;20037;-85
2021/06/08 03:24:37;;;;;;;27.10;24.35;;;14.90;75.20;;;;;;4989386;28;20511;-82
2021/06/08 03:27:03;;;;;;;26.30;23.70;;;14.90;75.20;;;;;;4958028;28;20042;-84
2021/06/08 03:29:31;;;;;;;26.92;24.23;;;14.90;75.20;;;;;;4973153;28;20407;-82
2021/06/08 03:31:56;;;;;;;26.05;23.35;;;14.80;75.20;;;;;;4975290;28;20125;-82
2021/06/08 03:34:23;;;;;;;28.05;25.10;;;14.80;75.30;;;;;;4992799;28;20050;-82
2021/06/08 03:36:50;;;;;;;27.52;24.63;;;14.80;75.40;;;;;;4961838;28;20137;-83
2021/06/08 03:39:18;;;;;;;28.00;25.10;;;14.80;75.40;;;;;;4961586;28;20092;-84
2021/06/08 03:41:45;;;;;;;27.95;25.05;;;14.80;75.40;;;;;;4960887;28;20046;-83
2021/06/08 03:44:12;;;;;;;29.40;26.33;;;14.80;75.50;;;;;;4961647;28;20125;-84
2021/06/08 03:46:38;;;;;;;28.98;25.85;;;14.80;75.60;;;;;;4960936;28;20287;-83
2021/06/08 03:49:06;;;;;;;29.40;26.40;;;14.80;75.50;;;;;;4993557;28;20046;-83
2021/06/08 03:51:32;;;;;;;27.75;24.95;;;14.80;75.60;;;;;;4960593;28;20058;-84
2021/06/08 03:54:01;;;;;;;29.63;26.52;;;14.80;75.70;;;;;;4977330;28;20077;-82
2021/06/08 03:56:28;;;;;;;31.65;26.33;;;14.80;75.80;;;;;;4976742;28;20441;-82
2021/06/08 03:58:54;;;;;;;29.20;26.17;;;14.80;75.80;;;;;;4961244;28;20062;-83
2021/06/08 04:01:21;;;;;;;28.55;25.55;;;14.80;75.90;;;;;;4976517;28;20051;-86
2021/06/08 04:03:50;;;;;;;26.75;24.02;;;14.80;75.90;;;;;;4945598;28;20384;-83
2021/06/08 04:06:19;;;;;;;27.25;24.45;;;14.80;75.90;;;;;;4995909;28;20141;-82
2021/06/08 04:08:44;;;;;;;26.60;23.77;;;14.80;76.00;;;;;;4961070;28;20050;-83
2021/06/08 04:11:11;;;;;;;26.58;23.77;;;14.80;75.90;;;;;;4977031;28;20447;-84
2021/06/08 04:13:40;;;;;;;28.65;25.75;;;14.80;75.90;;;;;;4976513;28;20105;-83
2021/06/08 04:16:10;;;;;;;28.15;25.15;;;14.80;76.00;;;;;;4977045;28;20046;-83
2021/06/08 04:18:36;;;;;;;28.15;25.13;;;14.80;76.00;;;;;;4976824;28;20061;-83
2021/06/08 04:21:02;;;;;;;26.30;23.55;;;14.80;76.00;;;;;;4976900;28;20042;-82
2021/06/08 04:23:28;;;;;;;26.27;23.55;;;14.80;76.10;;;;;;4945351;28;20175;-84
2021/06/08 04:25:54;;;;;;;28.55;25.48;;;14.80;76.20;;;;;;4983158;28;20050;-83
2021/06/08 04:28:21;;;;;;;27.65;24.75;;;14.80;76.10;;;;;;4983245;28;20049;-86
2021/06/08 04:30:48;;;;;;;27.92;24.92;;;14.80;76.10;;;;;;4983436;28;20398;-84
2021/06/08 04:33:26;;;;;;;28.83;25.80;;;14.80;76.20;;;;;;4983670;28;20038;-82
2021/06/08 04:35:55;;;;;;;26.92;24.13;;;14.80;76.20;;;;;;4985695;28;20409;-82
2021/06/08 04:38:22;;;;;;;28.48;25.48;;;14.80;76.10;;;;;;5014803;28;20079;-86
2021/06/08 04:40:49;;;;;;;27.52;24.42;;;14.80;76.20;;;;;;5014964;28;20056;-83
2021/06/08 04:43:19;;;;;;;25.27;22.75;;;14.90;76.20;;;;;;5014294;28;20053;-84
2021/06/08 04:45:50;;;;;;;25.10;22.40;;;14.80;76.20;;;;;;4984325;28;20046;-84
2021/06/08 04:48:24;;;;;;;27.23;24.42;;;14.80;76.20;;;;;;5000589;28;20041;-84
2021/06/08 04:50:55;;;;;;;26.58;23.77;;;14.90;76.40;;;;;;4984010;28;20156;-83
2021/06/08 04:53:29;;;;;;;27.33;24.33;;;14.90;76.30;;;;;;5000814;28;20037;-83
2021/06/08 04:55:58;;;;;;;26.40;23.63;;;14.90;76.20;;;;;;5015741;28;20064;-83
2021/06/08 04:58:43;;;;;;;28.35;24.65;;;14.90;76.10;;;;;;4990353;28;20080;-82
2021/06/08 05:01:09;;;;;;;28.50;24.77;;;14.90;76.10;;;;;;4998689;28;20081;-82
2021/06/08 05:03:44;;;;;;;27.25;23.83;;;14.90;76.00;;;;;;5014217;28;20164;-83
2021/06/08 05:06:13;;;;;;;26.60;23.73;;;14.90;76.80;;;;;;4999653;28;20049;-83
2021/06/08 05:08:45;;;;;;;26.45;23.60;;;15.00;76.00;;;;;;4983041;28;20041;-83
2021/06/08 05:11:19;;;;;;;27.23;24.30;;;15.00;76.00;;;;;;4998946;28;20144;-83
2021/06/08 05:13:47;;;;;;;28.10;25.10;;;15.00;75.90;;;;;;4998073;28;20041;-82
2021/06/08 05:16:13;;;;;;;27.02;24.27;;;15.00;75.90;;;;;;4982272;28;20121;-84
2021/06/08 05:18:45;;;;;;;27.05;23.52;;;15.00;75.70;;;;;;4982328;28;20045;-85
2021/06/08 05:21:16;;;;;;;26.50;23.20;;;15.10;75.60;;;;;;4984445;28;20120;-83
2021/06/08 05:23:43;;;;;;;24.58;21.98;;;15.10;75.60;;;;;;5014087;28;20176;-83
2021/06/08 05:26:20;;;;;;;26.80;24.05;;;15.10;75.80;;;;;;4986962;28;20034;-85
2021/06/08 05:29:04;;;;;;;29.90;25.02;;;15.10;75.80;;;;;;5017154;28;20386;-84
2021/06/08 05:31:31;;;;;;;27.67;24.77;;;15.10;75.80;;;;;;5010058;28;20405;-86
2021/06/08 05:34:01;;;;;;;27.70;24.80;;;15.20;75.80;;;;;;5000502;28;20116;-82
2021/06/08 05:36:33;;;;;;;26.10;22.88;;;15.20;75.80;;;;;;4998508;28;20056;-84
2021/06/08 05:38:59;;;;;;;27.40;24.50;;;15.20;75.50;;;;;;5000322;28;20052;-82
2021/06/08 05:41:26;;;;;;;30.15;26.25;;;15.20;75.50;;;;;;5015466;28;20033;-85
2021/06/08 05:43:55;;;;;;;29.10;25.95;;;15.30;75.60;;;;;;5032964;28;20052;-84
2021/06/08 05:46:21;;;;;;;30.08;26.90;;;15.30;75.50;;;;;;5000414;28;20063;-82
2021/06/08 05:48:47;;;;;;;29.90;26.75;;;15.30;75.40;;;;;;5025802;28;20065;-82
2021/06/08 05:51:16;;;;;;;28.55;25.70;;;15.30;75.20;;;;;;5016161;28;20063;-80
2021/06/08 05:53:45;;;;;;;28.90;25.85;;;15.40;75.10;;;;;;5000685;28;20041;-80
2021/06/08 05:56:12;;;;;;;31.75;28.00;;;15.40;75.10;;;;;;4997799;28;20049;-80
2021/06/08 05:58:45;;;;;;;31.63;28.27;;;15.30;75.80;;;;;;4986961;28;20102;-80
2021/06/08 06:01:12;;;;;;;32.15;28.75;;;15.20;76.70;;;;;;5005604;28;20452;-82
2021/06/08 06:03:39;;;;;;;31.80;28.33;;;15.10;77.10;;;;;;5013332;28;20056;-82
2021/06/08 06:06:05;;;;;;;32.10;28.65;;;15.00;77.70;;;;;;5016986;28;20186;-80
2021/06/08 06:08:32;;;;;;;32.75;29.40;;;15.00;78.20;;;;;;4984746;28;20063;-80
2021/06/08 06:10:59;;;;;;;34.72;31.00;;;14.90;78.50;;;;;;5012960;28;20040;-84
2021/06/08 06:13:33;;;;;;;33.72;30.13;;;15.00;78.50;;;;;;4996594;28;20131;-84
2021/06/08 06:16:02;;;;;;;35.20;31.38;;;15.00;78.50;;;;;;5020512;28;20079;-84
2021/06/08 06:18:31;;;;;;;33.65;30.02;;;15.00;78.40;;;;;;5018255;28;20060;-86
2021/06/08 06:21:16;;;;;;;38.58;33.72;;;15.00;78.30;;;;;;5008932;28;20379;-84
2021/06/08 06:23:42;;;;;;;39.72;35.35;;;15.10;78.20;;;;;;5027090;28;20041;-85
2021/06/08 06:26:13;;;;;;;37.45;33.25;;;15.10;78.50;;;;;;5017357;28;20048;-86
2021/06/08 06:28:46;;;;;;;38.90;34.10;;;15.20;78.30;;;;;;5012532;28;20326;-90
2021/06/08 06:31:19;;;;;;;39.67;35.13;;;15.30;78.10;;;;;;5028716;28;20045;-82
2021/06/08 06:33:52;;;;;;;38.25;33.45;;;15.30;78.40;;;;;;4997618;28;20042;-84
2021/06/08 06:36:27;;;;;;;39.00;34.58;;;15.40;78.00;;;;;;5006389;28;20038;-83
2021/06/08 06:39:01;;;;;;;39.65;34.08;;;15.40;77.80;;;;;;5046856;28;20434;-85
2021/06/08 06:41:31;;;;;;;38.20;32.20;;;15.50;77.90;;;;;;5028140;28;20112;-82
2021/06/08 06:44:01;;;;;;;41.40;34.67;;;15.60;77.70;;;;;;5008810;28;20060;-85
2021/06/08 06:46:31;;;;;;;38.63;33.78;;;15.50;77.60;;;;;;5012680;28;20072;-84
2021/06/08 06:48:57;;;;;;;42.15;36.10;;;15.60;77.60;;;;;;5017285;28;20038;-81
2021/06/08 06:51:23;;;;;;;36.45;32.50;;;15.60;77.70;;;;;;5024863;28;20045;-79
2021/06/08 06:53:56;;;;;;;39.42;34.15;;;15.60;77.70;;;;;;5008979;28;20037;-78
2021/06/08 06:56:24;;;;;;;37.47;33.45;;;15.70;77.80;;;;;;5016430;28;20097;-88
2021/06/08 06:58:58;;;;;;;41.50;33.60;;;15.70;77.80;;;;;;5023034;28;20047;-92
2021/06/08 07:01:34;;;;;;;39.85;33.83;;;15.80;77.60;;;;;;5026463;28;20091;-91
2021/06/08 07:04:03;;;;;;;36.40;31.25;;;15.90;78.30;;;;;;5006892;28;20147;-92
2021/06/08 07:06:32;;;;;;;41.88;35.50;;;15.90;77.40;;;;;;5023948;28;20045;-92
2021/06/08 07:09:01;;;;;;;43.15;37.45;;;15.90;77.20;;;;;;5010936;28;20057;-87
2021/06/08 07:11:36;;;;;;;38.70;34.33;;;15.90;77.30;;;;;;4994734;28;20147;-90
2021/06/08 07:14:02;;;;;;;35.55;31.38;;;15.90;77.20;;;;;;5010229;28;20489;-88
2021/06/08 07:16:34;;;;;;;34.20;30.42;;;15.90;77.40;;;;;;5010296;28;20109;-89
2021/06/08 07:19:03;;;;;;;35.40;31.55;;;15.90;77.50;;;;;;5009915;28;20041;-90
2021/06/08 07:21:37;;;;;;;35.17;29.23;;;15.90;77.50;;;;;;5013199;28;20037;-91
2021/06/08 07:24:05;;;;;;;32.25;28.75;;;15.90;77.40;;;;;;4995135;28;20045;-92
2021/06/08 07:26:51;;;;;;;32.75;29.13;;;15.90;77.30;;;;;;5007025;28;20115;-91
2021/06/08 07:29:20;;;;;;;33.20;29.55;;;15.90;77.20;;;;;;5039450;28;20093;-84
2021/06/08 07:32:09;;;;;;;30.83;27.52;;;15.90;77.30;;;;;;5026768;28;20117;-86
2021/06/08 07:35:04;;;;;;;30.00;26.15;;;15.90;77.10;;;;;;4987279;28;20038;-85
2021/06/08 07:37:33;;;;;;;29.35;26.15;;;16.00;77.20;;;;;;5010926;28;20034;-83
2021/06/08 07:40:12;;;;;;;32.70;28.10;;;16.00;77.00;;;;;;4992104;28;20034;-84
2021/06/08 07:42:42;;;;;;;30.38;27.30;;;16.00;77.00;;;;;;5005221;28;20042;-83
2021/06/08 07:45:16;;;;;;;30.98;27.75;;;16.10;76.80;;;;;;4980518;28;20053;-83
2021/06/08 07:47:52;;;;;;;31.70;27.20;;;16.10;77.00;;;;;;4997238;28;20092;-84
2021/06/08 07:50:21;;;;;;;33.35;26.90;;;16.10;76.70;;;;;;4980265;28;20037;-83
2021/06/08 07:52:51;;;;;;;30.80;27.63;;;16.10;76.30;;;;;;4996921;28;20045;-84
2021/06/08 07:55:16;;;;;;;31.65;27.83;;;16.10;76.20;;;;;;4967598;28;20078;-82
2021/06/08 07:57:46;;;;;;;30.88;26.13;;;16.20;76.30;;;;;;4982292;28;20053;-85
2021/06/08 08:00:27;;;;;;;28.23;25.17;;;16.20;76.10;;;;;;5001743;28;20038;-84
2021/06/08 08:02:54;;;;;;;27.92;24.92;;;16.20;76.00;;;;;;5000120;28;20169;-87
2021/06/08 08:05:32;;;;;;;28.55;25.13;;;16.30;75.90;;;;;;4988085;28;20392;-85
2021/06/08 08:08:01;;;;;;;28.55;25.60;;;16.30;75.80;;;;;;4983019;28;20058;-84
2021/06/08 08:10:27;;;;;;;29.58;26.27;;;16.40;75.70;;;;;;4987905;28;20414;-84
2021/06/08 08:12:57;;;;;;;32.17;28.63;;;16.40;75.70;;;;;;4988863;28;20064;-89
2021/06/08 08:15:28;;;;;;;27.50;24.60;;;16.40;75.60;;;;;;4990550;28;20042;-86
2021/06/08 08:17:54;;;;;;;33.30;28.20;;;16.50;75.50;;;;;;4987434;28;20072;-86
2021/06/08 08:20:49;;;;;;;29.13;25.27;;;16.50;75.70;;;;;;4980441;28;20465;-84
2021/06/08 08:23:35;;;;;;;31.13;26.80;;;16.60;75.80;;;;;;5007633;28;20053;-84
2021/06/08 08:26:21;;;;;;;31.58;25.58;;;16.60;75.80;;;;;;4999338;28;20172;-84
2021/06/08 08:28:58;;;;;;;30.30;25.73;;;16.70;75.70;;;;;;4989647;28;20038;-85
2021/06/08 08:31:28;;;;;;;28.48;24.20;;;16.80;76.40;;;;;;4989335;28;20065;-83
2021/06/08 08:34:01;;;;;;;27.02;22.42;;;16.80;75.60;;;;;;4983046;28;20046;-87
2021/06/08 08:36:31;;;;;;;25.77;23.02;;;16.90;75.30;;;;;;4998302;28;20403;-84
2021/06/08 08:38:57;;;;;;;27.10;24.20;;;17.00;75.20;;;;;;4973376;28;20111;-86
2021/06/08 08:41:24;;;;;;;27.33;24.08;;;17.00;75.00;;;;;;4985522;28;20054;-85
2021/06/08 08:44:00;;;;;;;26.52;22.88;;;17.10;75.00;;;;;;4998244;28;20107;-86
2021/06/08 08:46:48;;;;;;;26.10;23.30;;;17.10;74.90;;;;;;4978110;28;20085;-87
2021/06/08 08:49:17;;;;;;;24.50;21.88;;;17.20;74.70;;;;;;4983576;28;20169;-84
2021/06/08 08:51:50;;;;;;;25.38;22.50;;;17.30;74.60;;;;;;5003411;28;20105;-83
2021/06/08 08:54:19;;;;;;;24.88;20.65;;;17.40;74.40;;;;;;4984734;28;20045;-87
2021/06/08 08:56:49;;;;;;;30.43;26.27;;;17.50;74.20;;;;;;4970698;28;20053;-83
2021/06/08 08:59:25;;;;;;;28.25;24.83;;;17.50;74.10;;;;;;5001857;28;20543;-82
2021/06/08 09:02:11;;;;;;;23.95;21.25;;;17.60;74.10;;;;;;4987768;28;20224;-82
2021/06/08 09:04:39;;;;;;;26.58;23.38;;;17.70;74.20;;;;;;5000811;28;20096;-81
2021/06/08 09:07:05;;;;;;;24.90;22.15;;;17.90;74.30;;;;;;4983335;28;20437;-83
2021/06/08 09:09:43;;;;;;;21.60;18.83;;;17.90;74.00;;;;;;5002930;28;20041;-84
2021/06/08 09:12:16;;;;;;;23.33;20.83;;;18.10;74.30;;;;;;4986838;28;20526;-83
2021/06/08 09:14:43;;;;;;;24.15;21.65;;;18.20;73.90;;;;;;4969402;28;20410;-86
2021/06/08 09:17:09;;;;;;;27.75;24.85;;;18.30;73.70;;;;;;5016801;28;20041;-84
2021/06/08 09:19:35;;;;;;;25.27;22.10;;;18.40;73.30;;;;;;4999596;28;20052;-82
2021/06/08 09:22:02;;;;;;;27.75;21.73;;;18.50;73.10;;;;;;5000922;28;20526;-85
2021/06/08 09:24:29;;;;;;;24.48;21.73;;;18.60;72.80;;;;;;5000508;28;20123;-83
2021/06/08 09:27:16;;;;;;;23.60;21.02;;;18.70;72.50;;;;;;4979712;28;20054;-83
2021/06/08 09:29:47;;;;;;;24.38;20.55;;;18.80;72.80;;;;;;4979459;28;20066;-90
2021/06/08 09:32:33;;;;;;;27.13;20.73;;;19.00;73.10;;;;;;4976589;28;20056;-88
2021/06/08 09:35:17;;;;;;;22.15;18.27;;;19.10;71.90;;;;;;4992064;28;20068;-87
2021/06/08 09:38:13;;;;;;;20.60;17.33;;;19.30;71.70;;;;;;5009032;28;20052;-88
2021/06/08 09:40:49;;;;;;;19.65;16.13;;;19.30;70.10;;;;;;5009440;28;20112;-88
2021/06/08 09:43:32;;;;;;;16.83;12.98;;;19.50;69.90;;;;;;5024082;28;20156;-87
2021/06/08 09:46:06;;;;;;;8.85;6.65;;;19.70;68.80;;;;;;4990634;28;20509;-87
2021/06/08 09:49:05;;;;;;;;;;;;;;;;;;;;;
2021/06/08 09:52:02;;;;;;;9.48;8.48;;;19.80;65.70;;;;;;5011584;28;20383;-89
2021/06/08 09:55:01;;;;;;;7.82;6.32;;;19.90;65.80;;;;;;4993831;28;20493;-86
2021/06/08 09:57:38;;;;;;;7.80;6.78;;;20.10;64.40;;;;;;5025489;28;20135;-87
2021/06/08 10:00:07;;;;;;;10.18;7.50;;;20.20;64.30;;;;;;5006492;28;20033;-86
2021/06/08 10:02:44;;;;;;;8.43;6.80;;;20.30;63.50;;;;;;5005587;28;20524;-85
2021/06/08 10:05:27;;;;;;;8.88;6.57;;;20.40;63.00;;;;;;5038492;28;20057;-86
2021/06/08 10:07:59;;;;;;;8.68;6.57;;;20.60;63.10;;;;;;5008661;28;20054;-87
2021/06/08 10:10:49;;;;;;;7.55;6.75;;;20.80;62.30;;;;;;5018835;28;20042;-86
2021/06/08 10:13:18;;;;;;;7.18;5.60;;;20.90;61.60;;;;;;5026193;28;20045;-89
2021/06/08 10:15:58;;;;;;;7.97;5.47;;;21.00;61.00;;;;;;5006973;28;20482;-85
2021/06/08 10:18:25;;;;;;;9.07;5.00;;;21.20;59.30;;;;;;5022299;28;20200;-85
2021/06/08 10:20:56;;;;;;;8.27;6.57;;;21.30;59.10;;;;;;5006096;28;20132;-87
2021/06/08 10:23:29;;;;;;;8.57;7.00;;;21.50;58.80;;;;;;5022392;28;20474;-92
2021/06/08 10:25:56;;;;;;;11.00;8.07;;;21.60;58.90;;;;;;4996948;28;20074;-93
2021/06/08 10:28:23;;;;;;;10.98;8.70;;;21.70;58.90;;;;;;5026069;28;20094;-89
2021/06/08 10:30:52;;;;;;;10.75;8.38;;;21.80;58.30;;;;;;5025780;28;20049;-90
2021/06/08 10:33:26;;;;;;;9.80;8.20;;;22.00;58.50;;;;;;5027408;28;20119;-86
2021/06/08 10:35:54;;;;;;;12.63;10.00;;;22.10;58.90;;;;;;5041191;28;20068;-85
2021/06/08 10:38:50;;;;;;;8.50;6.70;;;22.30;58.60;;;;;;5017562;28;20099;-87
2021/06/08 10:41:26;;;;;;;8.25;7.10;;;22.40;57.30;;;;;;5024690;28;20096;-85
2021/06/08 10:43:52;;;;;;;10.88;8.07;;;22.60;57.00;;;;;;5037492;28;20041;-86
2021/06/08 10:46:30;;;;;;;10.07;8.77;;;22.80;56.80;;;;;;5020671;28;20518;-86
2021/06/08 10:48:59;;;;;;;10.10;8.95;;;22.90;56.50;;;;;;5023284;28;20476;-89
2021/06/08 10:51:27;;;;;;;12.30;8.68;;;23.10;55.70;;;;;;5025560;28;20049;-90
2021/06/08 10:53:54;;;;;;;10.75;9.45;;;23.20;55.00;;;;;;5041410;28;20045;-87
2021/06/08 10:56:32;;;;;;;8.88;7.95;;;23.40;55.10;;;;;;5038399;28;20045;-89
2021/06/08 10:59:06;;;;;;;9.02;7.82;;;23.50;54.00;;;;;;5026079;28;20037;-90
2021/06/08 11:04:03;;;;;;;8.93;8.00;;;24.00;53.70;;;;;;5059485;28;20053;-94
2021/06/08 11:06:45;;;;;;;9.40;8.10;;;24.10;53.60;;;;;;5038186;28;20036;-86
2021/06/08 11:09:13;;;;;;;;;;;24.30;53.00;;;;;;5038440;28;20053;-87
2021/06/08 11:11:57;;;;;;;8.60;6.68;;;24.60;53.10;;;;;;5020319;28;19917;-88
2021/06/08 11:17:11;;;;;;;8.75;7.38;;;25.00;51.10;;;;;;5038115;28;20419;-90
2021/06/08 11:20:14;;;;;;;10.45;6.63;;;25.10;50.70;;;;;;5037615;28;20037;-90
2021/06/08 11:22:47;;;;;;;7.68;6.63;;;25.30;50.40;;;;;;5038587;28;20096;-92
2021/06/08 11:25:43;;;;;;;6.85;5.65;;;25.40;49.70;;;;;;5034795;28;20088;-88
2021/06/08 11:28:13;;;;;;;7.28;5.93;;;25.60;48.80;;;;;;5005984;28;20054;-89
2021/06/08 11:30:44;;;;;;;8.95;5.95;;;25.80;48.30;;;;;;5033040;28;20065;-89
2021/06/08 11:33:49;;;;;;;7.88;5.68;;;26.00;48.10;;;;;;5026869;28;20041;-91
2021/06/08 11:36:22;;;;;;;8.40;5.07;;;26.20;48.20;;;;;;5010119;28;20117;-89
2021/06/08 11:38:52;;;;;;;6.30;5.30;;;26.30;47.00;;;;;;5038105;28;20115;-91
2021/06/08 11:41:21;;;;;;;6.53;5.45;;;26.50;46.10;;;;;;5017137;28;20128;-87
2021/06/08 11:43:57;;;;;;;6.15;5.50;;;26.60;45.90;;;;;;5033516;28;20403;-92
2021/06/08 11:46:30;;;;;;;7.10;6.27;;;26.70;45.10;;;;;;5043549;28;20037;-92
2021/06/08 11:49:12;;;;;;;6.88;6.13;;;26.90;45.20;;;;;;5011568;28;20326;-93
2021/06/08 11:51:48;;;;;;;5.88;5.28;;;27.00;46.00;;;;;;5058654;28;20041;-91
2021/06/08 11:54:17;;;;;;;6.97;5.95;;;27.20;44.60;;;;;;5063046;28;20036;-90
2021/06/08 11:56:51;;;;;;;;;;;27.30;44.10;;;;;;5027076;28;20223;-84
2021/06/08 11:59:34;;;;;;;5.30;4.70;;;27.40;44.20;;;;;;5040542;28;19921;-82
2021/06/08 12:02:05;;;;;;;6.57;5.00;;;27.40;44.10;;;;;;5036203;28;20041;-77
2021/06/08 12:04:32;;;;;;;6.22;5.30;;;27.40;43.30;;;;;;5018721;28;20045;-80
2021/06/08 12:07:06;;;;;;;6.78;5.07;;;27.50;43.40;;;;;;5018455;28;20397;-77
2021/06/08 12:09:46;;;;;;;6.72;6.03;;;27.60;43.20;;;;;;5020762;28;20041;-78
2021/06/08 12:12:20;;;;;;;9.13;5.47;;;27.60;41.90;;;;;;5034780;28;20061;-76
2021/06/08 12:14:55;;;;;;;7.28;5.75;;;27.70;41.90;;;;;;5019775;28;20041;-76
2021/06/08 12:17:20;;;;;;;6.57;5.47;;;27.80;41.80;;;;;;5019816;28;20128;-78
2021/06/08 12:19:49;;;;;;;7.35;5.72;;;27.80;42.20;;;;;;5035280;28;20129;-78
2021/06/08 12:22:31;;;;;;;7.03;4.97;;;27.90;42.60;;;;;;5036892;28;20498;-76
2021/06/08 12:25:17;;;;;;;7.00;5.65;;;28.00;42.10;;;;;;4989056;28;20049;-78
2021/06/08 12:27:44;;;;;;;7.57;5.82;;;28.10;42.30;;;;;;5018583;28;20119;-76
2021/06/08 12:30:12;;;;;;;6.32;5.47;;;28.10;41.40;;;;;;5035374;28;20084;-77
2021/06/08 12:32:41;;;;;;;8.02;6.00;;;28.20;41.70;;;;;;5020148;28;20132;-77
2021/06/08 12:35:34;;;;;;;6.30;5.47;;;28.30;41.40;;;;;;5004759;28;20104;-77
2021/06/08 12:38:20;;;;;;;9.05;6.43;;;28.40;40.50;;;;;;5035791;28;20069;-78
2021/06/08 12:41:00;;;;;;;6.43;5.05;;;28.40;39.90;;;;;;5034273;28;20100;-77
2021/06/08 12:43:29;;;;;;;7.22;4.68;;;28.50;40.50;;;;;;5032872;28;20045;-77
2021/06/08 12:45:58;;;;;;;6.72;5.15;;;28.50;40.20;;;;;;5036304;28;20049;-77
2021/06/08 12:48:25;;;;;;;6.63;4.70;;;28.60;40.10;;;;;;5003028;28;20077;-77
2021/06/08 12:50:51;;;;;;;6.50;5.28;;;28.70;39.90;;;;;;5016853;28;20046;-75
2021/06/08 12:53:37;;;;;;;5.72;5.13;;;28.60;39.50;;;;;;5001451;28;20037;-79
2021/06/08 12:56:03;;;;;;;6.53;5.13;;;28.60;39.90;;;;;;5018020;28;20091;-79
2021/06/08 12:58:29;;;;;;;5.60;5.03;;;28.60;40.00;;;;;;5022888;28;20128;-81
2021/06/08 13:00:55;;;;;;;5.65;5.03;;;28.60;39.60;;;;;;5018362;28;20065;-82
2021/06/08 13:03:23;;;;;;;6.32;5.55;;;28.70;39.50;;;;;;4986870;28;20045;-82